Aviation Digital Data Service (ADDS)

Output produced by METARs form (0422 UTC 19 February 2019)
found at http://www.aviationweather.gov/metar/data/
 
Forecast for: ZGSZ (SHENZHEN , CN)
Text: TAF ZGSZ 190318Z 1906/2006 12004MPS 6000 FEW020 BKN050 TX23/1907Z TN18/1922Z
Forecast period: 0600 UTC 19 February 2019 to 0600 UTC 20 February 2019
Forecast type: FROM: standard forecast or significant change
Winds: from the ESE (120 degrees) at 9 MPH (8 knots; 4.1 m/s)
Visibility: 4 miles (6 km)
Ceiling: 5000 feet AGL
Clouds: few clouds at 2000 feet AGL
broken clouds at 5000 feet AGL
Weather: no significant weather forecast for this period